This is the latest recevied weather packets stored in our database for station/object N6XE-13. If no packets are shown the sender has not sent any weather packets the latest 10 day(s).
| Time | Temp. | Humidity | Pressure | Rain* | Wind** | Luminosity | Snow |
|---|---|---|---|---|---|---|---|
| 1777946405 | 16.11° C | 79% | 1017 hPa | 0 mm | - | - | - |
| 1777944606 | 16.11° C | 81% | 1017.1 hPa | 0 mm | - | - | - |
| 1777942805 | 16.11° C | 80% | 1017.2 hPa | 0 mm | - | - | - |
| 1777939206 | 17.22° C | 74% | 1017.5 hPa | 0 mm | - | - | - |
| 1777937406 | 17.22° C | 73% | 1017.4 hPa | 0 mm | - | - | - |
| 1777935606 | 17.22° C | 73% | 1017.5 hPa | 0 mm | - | - | - |
| 1777933805 | 17.78° C | 72% | 1017.5 hPa | 0 mm | - | - | - |
| 1777932006 | 18.33° C | 70% | 1017.6 hPa | 0 mm | - | - | - |
| 1777930205 | 18.89° C | 68% | 1017.7 hPa | 0 mm | - | - | - |
| 1777928405 | 19.44° C | 70% | 1017.7 hPa | 0 mm | - | - | - |
| 1777926605 | 19.44° C | 70% | 1017.7 hPa | 0 mm | - | - | - |
| 1777923005 | 17.78° C | 73% | 1018 hPa | 0 mm | - | - | - |
| 1777919405 | 16.67° C | 76% | 1018.1 hPa | 0 mm | - | - | - |
| 1777917605 | 17.22° C | 69% | 1018.2 hPa | 0 mm | - | - | - |
| 1777915805 | 16.67° C | 70% | 1018 hPa | 0 mm | - | - | - |
| 1777914005 | 15.56° C | 74% | 1017.8 hPa | 0 mm | - | - | - |
| 1777912205 | 15° C | 76% | 1017.7 hPa | 0 mm | - | - | - |
| 1777910405 | 14.44° C | 79% | 1017.7 hPa | 0 mm | - | - | - |
| 1777908605 | 13.89° C | 81% | 1017.6 hPa | 0 mm | - | - | - |
| 1777906805 | 13.89° C | 81% | 1017.8 hPa | 0 mm | - | - | - |
| 1777905005 | 13.33° C | 82% | 1017.6 hPa | 0 mm | - | - | - |
| 1777903206 | 12.78° C | 84% | 1017.5 hPa | 0 mm | - | - | - |
| 1777901406 | 12.78° C | 85% | 1017.3 hPa | 0 mm | - | - | - |
| 1777899605 | 12.78° C | 85% | 1017.3 hPa | 0 mm | - | - | - |
| 1777897805 | 12.78° C | 85% | 1016.9 hPa | 0 mm | - | - | - |
* Rain latest hour (hover to see other rain measurements)
** Current wind speed in m/s (hover to see current wind gust speed)